sensor_id;sensor_type;location;lat;lon;timestamp;pressure;altitude;pressure_sealevel;temperature;humidity
11643;BME280;5877;50.930;6.918;2023-03-31T00:01:04;99957.31;;;11.22;71.87
11643;BME280;5877;50.930;6.918;2023-03-31T00:05:57;99889.47;;;10.67;73.47
11643;BME280;5877;50.930;6.918;2023-03-31T00:10:50;100013.22;;;11.46;74.34
11643;BME280;5877;50.930;6.918;2023-03-31T00:15:42;99675.50;;;9.38;75.13
11643;BME280;5877;50.930;6.918;2023-03-31T00:20:34;99805.06;;;10.12;75.18
11643;BME280;5877;50.930;6.918;2023-03-31T00:25:28;99912.94;;;10.97;75.29
11643;BME280;5877;50.930;6.918;2023-03-31T00:30:20;99980.00;;;11.40;76.35
11643;BME280;5877;50.930;6.918;2023-03-31T00:35:12;99961.97;;;11.32;76.86
11643;BME280;5877;50.930;6.918;2023-03-31T00:40:05;99941.09;;;11.25;78.38
11643;BME280;5877;50.930;6.918;2023-03-31T00:45:27;99909.25;;;11.10;78.30
11643;BME280;5877;50.930;6.918;2023-03-31T00:50:25;99912.66;;;11.22;77.82
11643;BME280;5877;50.930;6.918;2023-03-31T00:55:24;99771.13;;;10.29;77.59
11643;BME280;5877;50.930;6.918;2023-03-31T01:00:18;99712.19;;;9.85;77.41
11643;BME280;5877;50.930;6.918;2023-03-31T01:05:11;99671.75;;;9.57;76.97
11643;BME280;5877;50.930;6.918;2023-03-31T01:10:03;99866.81;;;10.90;77.61
11643;BME280;5877;50.930;6.918;2023-03-31T01:14:55;99419.44;;;8.00;77.53
11643;BME280;5877;50.930;6.918;2023-03-31T01:30:41;99843.19;;;10.90;77.53
11643;BME280;5877;50.930;6.918;2023-03-31T01:35:57;99628.59;;;9.48;76.77
11643;BME280;5877;50.930;6.918;2023-03-31T01:46:22;99596.94;;;9.50;76.64
11643;BME280;5877;50.930;6.918;2023-03-31T01:51:33;99721.50;;;10.39;76.20
11643;BME280;5877;50.930;6.918;2023-03-31T01:56:36;99581.31;;;9.55;76.84
11643;BME280;5877;50.930;6.918;2023-03-31T02:01:37;99805.81;;;11.11;77.38
11643;BME280;5877;50.930;6.918;2023-03-31T02:06:36;99800.41;;;11.18;76.79
11643;BME280;5877;50.930;6.918;2023-03-31T02:11:32;99614.59;;;10.06;76.88
11643;BME280;5877;50.930;6.918;2023-03-31T02:16:26;99714.84;;;10.77;77.96
11643;BME280;5877;50.930;6.918;2023-03-31T02:21:21;99488.53;;;9.39;78.40
11643;BME280;5877;50.930;6.918;2023-03-31T02:26:15;99743.00;;;11.10;79.26
11643;BME280;5877;50.930;6.918;2023-03-31T02:36:12;99692.47;;;11.02;79.11
11643;BME280;5877;50.930;6.918;2023-03-31T02:41:05;99708.94;;;10.98;79.73
11643;BME280;5877;50.930;6.918;2023-03-31T02:45:57;99565.78;;;10.17;80.02
11643;BME280;5877;50.930;6.918;2023-03-31T02:56:12;99589.16;;;10.63;80.94
11643;BME280;5877;50.930;6.918;2023-03-31T03:01:38;99574.13;;;10.59;81.62
11643;BME280;5877;50.930;6.918;2023-03-31T03:16:54;99397.91;;;9.38;81.00
11643;BME280;5877;50.930;6.918;2023-03-31T03:21:49;99404.69;;;9.51;80.96
11643;BME280;5877;50.930;6.918;2023-03-31T03:26:40;99585.13;;;10.72;80.28
11643;BME280;5877;50.930;6.918;2023-03-31T03:31:32;99465.16;;;10.06;79.24
11643;BME280;5877;50.930;6.918;2023-03-31T03:36:25;99319.97;;;9.28;78.99
11643;BME280;5877;50.930;6.918;2023-03-31T03:41:17;99401.69;;;9.87;78.31
11643;BME280;5877;50.930;6.918;2023-03-31T03:46:09;99391.66;;;9.84;77.47
11643;BME280;5877;50.930;6.918;2023-03-31T03:51:00;99354.34;;;9.77;77.18
11643;BME280;5877;50.930;6.918;2023-03-31T03:55:52;99383.41;;;9.92;76.45
11643;BME280;5877;50.930;6.918;2023-03-31T04:00:44;99457.97;;;10.47;76.79
11643;BME280;5877;50.930;6.918;2023-03-31T04:05:36;99370.72;;;10.01;76.18
11643;BME280;5877;50.930;6.918;2023-03-31T04:10:28;99388.84;;;10.19;75.89
11643;BME280;5877;50.930;6.918;2023-03-31T04:15:20;99224.44;;;9.14;76.28
11643;BME280;5877;50.930;6.918;2023-03-31T04:20:12;99142.25;;;8.53;75.87
11643;BME280;5877;50.930;6.918;2023-03-31T04:25:07;99007.25;;;7.90;76.23
11643;BME280;5877;50.930;6.918;2023-03-31T04:30:07;99055.94;;;8.36;76.37
11643;BME280;5877;50.930;6.918;2023-03-31T04:34:59;99168.59;;;9.25;76.66
11643;BME280;5877;50.930;6.918;2023-03-31T04:39:53;99308.19;;;10.09;76.75
11643;BME280;5877;50.930;6.918;2023-03-31T04:44:45;99186.53;;;9.33;76.49
11643;BME280;5877;50.930;6.918;2023-03-31T04:49:37;99100.19;;;8.71;76.07
11643;BME280;5877;50.930;6.918;2023-03-31T04:54:28;99139.00;;;9.08;75.71
11643;BME280;5877;50.930;6.918;2023-03-31T04:59:20;98717.53;;;6.31;75.16
11643;BME280;5877;50.930;6.918;2023-03-31T05:04:12;98967.63;;;8.10;75.15
11643;BME280;5877;50.930;6.918;2023-03-31T05:09:04;99181.13;;;9.57;74.60
11643;BME280;5877;50.930;6.918;2023-03-31T05:13:56;99031.56;;;8.64;73.93
11643;BME280;5877;50.930;6.918;2023-03-31T05:18:48;98903.88;;;7.94;73.97
11643;BME280;5877;50.930;6.918;2023-03-31T05:23:41;98698.59;;;6.64;73.16
11643;BME280;5877;50.930;6.918;2023-03-31T05:28:34;99052.63;;;9.08;73.76
11643;BME280;5877;50.930;6.918;2023-03-31T05:33:26;99036.44;;;9.11;73.17
11643;BME280;5877;50.930;6.918;2023-03-31T05:38:18;99097.44;;;9.67;72.78
11643;BME280;5877;50.930;6.918;2023-03-31T05:43:12;99121.88;;;9.94;73.26
11643;BME280;5877;50.930;6.918;2023-03-31T05:48:04;99006.69;;;9.17;71.83
11643;BME280;5877;50.930;6.918;2023-03-31T05:52:56;99071.38;;;9.38;72.45
11643;BME280;5877;50.930;6.918;2023-03-31T05:57:48;99264.44;;;10.97;72.78
11643;BME280;5877;50.930;6.918;2023-03-31T06:02:40;98837.63;;;8.17;70.59
11643;BME280;5877;50.930;6.918;2023-03-31T06:07:32;99068.56;;;9.84;70.20
11643;BME280;5877;50.930;6.918;2023-03-31T06:12:24;99044.38;;;9.76;68.87
11643;BME280;5877;50.930;6.918;2023-03-31T06:17:15;99144.69;;;10.64;67.45
11643;BME280;5877;50.930;6.918;2023-03-31T06:22:07;98994.03;;;9.74;67.14
11643;BME280;5877;50.930;6.918;2023-03-31T06:26:59;99107.84;;;10.54;68.14
11643;BME280;5877;50.930;6.918;2023-03-31T06:31:52;99197.91;;;10.87;69.85
11643;BME280;5877;50.930;6.918;2023-03-31T06:36:44;99073.72;;;10.00;69.19
11643;BME280;5877;50.930;6.918;2023-03-31T06:41:36;98821.34;;;8.49;68.59
11643;BME280;5877;50.930;6.918;2023-03-31T06:46:29;99220.19;;;11.11;68.12
11643;BME280;5877;50.930;6.918;2023-03-31T06:51:21;98934.78;;;9.47;68.10
11643;BME280;5877;50.930;6.918;2023-03-31T06:56:13;98864.38;;;9.23;67.46
11643;BME280;5877;50.930;6.918;2023-03-31T07:01:05;98910.06;;;10.55;64.86
11643;BME280;5877;50.930;6.918;2023-03-31T07:05:58;98969.53;;;12.57;58.87
11643;BME280;5877;50.930;6.918;2023-03-31T07:10:54;99186.38;;;13.93;58.42
11643;BME280;5877;50.930;6.918;2023-03-31T07:15:49;98862.09;;;11.27;60.26
11643;BME280;5877;50.930;6.918;2023-03-31T07:20:41;98937.84;;;11.61;61.27
11643;BME280;5877;50.930;6.918;2023-03-31T07:25:34;98925.75;;;11.60;60.58
11643;BME280;5877;50.930;6.918;2023-03-31T07:30:26;98999.97;;;11.92;60.43
11643;BME280;5877;50.930;6.918;2023-03-31T07:35:19;99169.34;;;13.40;60.76
11643;BME280;5877;50.930;6.918;2023-03-31T07:40:18;99141.88;;;14.46;56.81
11643;BME280;5877;50.930;6.918;2023-03-31T07:45:10;98873.75;;;14.01;52.54
11643;BME280;5877;50.930;6.918;2023-03-31T07:50:02;98790.84;;;13.49;52.83
11643;BME280;5877;50.930;6.918;2023-03-31T07:54:54;98921.66;;;14.52;52.50
11643;BME280;5877;50.930;6.918;2023-03-31T07:59:46;98952.09;;;15.21;50.94
11643;BME280;5877;50.930;6.918;2023-03-31T08:04:38;98921.13;;;15.65;49.89
11643;BME280;5877;50.930;6.918;2023-03-31T08:09:32;98994.84;;;14.76;53.11
11643;BME280;5877;50.930;6.918;2023-03-31T08:14:24;98963.22;;;13.97;54.58
11643;BME280;5877;50.930;6.918;2023-03-31T08:19:31;98861.66;;;13.17;55.74
11643;BME280;5877;50.930;6.918;2023-03-31T08:24:23;99109.63;;;15.46;54.27
11643;BME280;5877;50.930;6.918;2023-03-31T08:29:15;98998.94;;;15.40;52.40
11643;BME280;5877;50.930;6.918;2023-03-31T08:34:07;99120.50;;;16.35;51.44
11643;BME280;5877;50.930;6.918;2023-03-31T08:38:59;98886.97;;;14.30;52.46
11643;BME280;5877;50.930;6.918;2023-03-31T08:43:54;99070.91;;;15.79;50.76
11643;BME280;5877;50.930;6.918;2023-03-31T08:48:51;99055.81;;;17.06;47.86
11643;BME280;5877;50.930;6.918;2023-03-31T08:53:50;99034.22;;;19.07;43.29
11643;BME280;5877;50.930;6.918;2023-03-31T08:58:45;99088.66;;;20.54;41.35
11643;BME280;5877;50.930;6.918;2023-03-31T09:04:04;99096.09;;;20.87;40.61
11643;BME280;5877;50.930;6.918;2023-03-31T09:09:09;99062.00;;;21.10;40.11
11643;BME280;5877;50.930;6.918;2023-03-31T09:19:00;98854.34;;;19.20;40.68
11643;BME280;5877;50.930;6.918;2023-03-31T09:28:56;99075.00;;;20.56;40.89
11643;BME280;5877;50.930;6.918;2023-03-31T09:33:52;98939.28;;;18.23;43.60
11643;BME280;5877;50.930;6.918;2023-03-31T09:38:46;99074.25;;;18.57;44.62
11643;BME280;5877;50.930;6.918;2023-03-31T09:43:39;99083.88;;;17.40;47.56
11643;BME280;5877;50.930;6.918;2023-03-31T09:48:33;98650.91;;;13.75;51.75
11643;BME280;5877;50.930;6.918;2023-03-31T09:53:43;98828.31;;;15.80;46.15
11643;BME280;5877;50.930;6.918;2023-03-31T09:58:44;98855.09;;;16.24;45.52
11643;BME280;5877;50.930;6.918;2023-03-31T10:03:50;98717.84;;;15.25;45.28
11643;BME280;5877;50.930;6.918;2023-03-31T10:09:02;98996.63;;;17.52;45.20
11643;BME280;5877;50.930;6.918;2023-03-31T10:14:14;98891.88;;;17.00;45.04
11643;BME280;5877;50.930;6.918;2023-03-31T10:19:24;98740.84;;;15.90;45.63
11643;BME280;5877;50.930;6.918;2023-03-31T10:24:19;98781.16;;;16.14;45.54
11643;BME280;5877;50.930;6.918;2023-03-31T10:29:12;99017.34;;;17.77;45.31
11643;BME280;5877;50.930;6.918;2023-03-31T10:34:12;98907.38;;;17.20;44.68
11643;BME280;5877;50.930;6.918;2023-03-31T10:39:08;98719.00;;;16.12;45.10
11643;BME280;5877;50.930;6.918;2023-03-31T10:44:02;98841.31;;;16.55;44.73
11643;BME280;5877;50.930;6.918;2023-03-31T10:48:58;98979.25;;;17.32;45.41
11643;BME280;5877;50.930;6.918;2023-03-31T10:53:56;98792.38;;;16.80;44.11
11643;BME280;5877;50.930;6.918;2023-03-31T11:04:20;98891.19;;;17.08;44.25
11643;BME280;5877;50.930;6.918;2023-03-31T11:09:47;98728.81;;;16.25;44.15
11643;BME280;5877;50.930;6.918;2023-03-31T11:20:19;98905.22;;;16.95;44.92
11643;BME280;5877;50.930;6.918;2023-03-31T11:25:11;99003.22;;;17.27;45.40
11643;BME280;5877;50.930;6.918;2023-03-31T11:45:28;98731.38;;;15.56;45.75
11643;BME280;5877;50.930;6.918;2023-03-31T11:50:26;98795.84;;;16.07;46.00
11643;BME280;5877;50.930;6.918;2023-03-31T11:55:22;98795.94;;;15.69;46.93
11643;BME280;5877;50.930;6.918;2023-03-31T12:00:19;98979.53;;;17.03;47.65
11643;BME280;5877;50.930;6.918;2023-03-31T12:05:12;98835.09;;;15.86;50.28
11643;BME280;5877;50.930;6.918;2023-03-31T12:10:22;98973.97;;;15.70;56.35
11643;BME280;5877;50.930;6.918;2023-03-31T12:15:22;98960.25;;;15.86;54.86
11643;BME280;5877;50.930;6.918;2023-03-31T12:20:25;98905.06;;;16.12;51.22
11643;BME280;5877;50.930;6.918;2023-03-31T12:25:21;98598.41;;;14.58;49.51
11643;BME280;5877;50.930;6.918;2023-03-31T12:30:32;98948.19;;;17.96;49.05
11643;BME280;5877;50.930;6.918;2023-03-31T12:45:30;98621.53;;;15.32;45.50
11643;BME280;5877;50.930;6.918;2023-03-31T12:50:34;98692.34;;;16.08;44.78
11643;BME280;5877;50.930;6.918;2023-03-31T12:55:55;98811.19;;;16.92;48.35
11643;BME280;5877;50.930;6.918;2023-03-31T13:06:04;98740.09;;;14.44;55.49
11643;BME280;5877;50.930;6.918;2023-03-31T13:10:57;98805.22;;;14.97;55.70
11643;BME280;5877;50.930;6.918;2023-03-31T13:15:54;98584.25;;;14.12;54.65
11643;BME280;5877;50.930;6.918;2023-03-31T13:21:00;98641.81;;;14.28;53.34
11643;BME280;5877;50.930;6.918;2023-03-31T13:25:55;98685.97;;;14.66;53.55
11643;BME280;5877;50.930;6.918;2023-03-31T13:30:49;98914.63;;;16.73;49.97
11643;BME280;5877;50.930;6.918;2023-03-31T13:35:46;98819.63;;;16.39;48.55
11643;BME280;5877;50.930;6.918;2023-03-31T13:40:56;98712.78;;;15.75;47.90
11643;BME280;5877;50.930;6.918;2023-03-31T13:56:03;98717.91;;;16.27;48.89
11643;BME280;5877;50.930;6.918;2023-03-31T14:01:19;98677.06;;;16.05;47.79
11643;BME280;5877;50.930;6.918;2023-03-31T14:06:32;98832.88;;;17.44;46.23
11643;BME280;5877;50.930;6.918;2023-03-31T14:11:30;98824.47;;;17.28;44.78
11643;BME280;5877;50.930;6.918;2023-03-31T14:16:22;98797.97;;;16.65;44.91
11643;BME280;5877;50.930;6.918;2023-03-31T14:21:23;98872.44;;;17.04;44.52
11643;BME280;5877;50.930;6.918;2023-03-31T14:37:15;98860.38;;;16.71;44.63
11643;BME280;5877;50.930;6.918;2023-03-31T14:42:14;98436.03;;;14.10;44.07
11643;BME280;5877;50.930;6.918;2023-03-31T14:47:21;98855.56;;;16.73;44.13
11643;BME280;5877;50.930;6.918;2023-03-31T14:52:16;98534.97;;;14.64;44.04
11643;BME280;5877;50.930;6.918;2023-03-31T14:57:10;98475.97;;;14.03;44.92
11643;BME280;5877;50.930;6.918;2023-03-31T15:02:04;98786.56;;;15.77;45.30
11643;BME280;5877;50.930;6.918;2023-03-31T15:06:59;98753.56;;;15.42;45.51
11643;BME280;5877;50.930;6.918;2023-03-31T15:12:07;98685.91;;;14.71;46.21
11643;BME280;5877;50.930;6.918;2023-03-31T15:17:01;98612.47;;;13.92;47.78
11643;BME280;5877;50.930;6.918;2023-03-31T15:21:55;98726.94;;;14.39;48.18
11643;BME280;5877;50.930;6.918;2023-03-31T15:31:55;98650.41;;;13.73;49.08
11643;BME280;5877;50.930;6.918;2023-03-31T15:36:47;98609.13;;;13.34;50.92
11643;BME280;5877;50.930;6.918;2023-03-31T15:41:40;98545.00;;;12.91;51.97
11643;BME280;5877;50.930;6.918;2023-03-31T15:51:39;98770.84;;;14.06;58.55
11643;BME280;5877;50.930;6.918;2023-03-31T15:56:42;98908.28;;;14.68;58.84
11643;BME280;5877;50.930;6.918;2023-03-31T16:01:42;98892.22;;;14.64;59.73
11643;BME280;5877;50.930;6.918;2023-03-31T16:06:46;98768.06;;;13.92;59.66
11643;BME280;5877;50.930;6.918;2023-03-31T16:11:52;98644.28;;;12.90;58.46
11643;BME280;5877;50.930;6.918;2023-03-31T16:16:50;98577.34;;;12.23;60.86
11643;BME280;5877;50.930;6.918;2023-03-31T16:21:46;98860.31;;;13.24;65.17
11643;BME280;5877;50.930;6.918;2023-03-31T16:26:43;98555.41;;;10.84;67.03
11643;BME280;5877;50.930;6.918;2023-03-31T16:31:37;98810.09;;;12.36;67.31
11643;BME280;5877;50.930;6.918;2023-03-31T16:36:30;98817.69;;;12.53;67.04
11643;BME280;5877;50.930;6.918;2023-03-31T16:41:23;98900.09;;;13.13;65.78
11643;BME280;5877;50.930;6.918;2023-03-31T16:46:15;98602.13;;;11.07;65.91
11643;BME280;5877;50.930;6.918;2023-03-31T16:51:08;98898.28;;;13.18;65.32
11643;BME280;5877;50.930;6.918;2023-03-31T16:56:01;98568.00;;;11.07;63.42
11643;BME280;5877;50.930;6.918;2023-03-31T17:00:53;98416.41;;;10.07;63.39
11643;BME280;5877;50.930;6.918;2023-03-31T17:05:48;98885.69;;;13.00;63.50
11643;BME280;5877;50.930;6.918;2023-03-31T17:10:51;98655.63;;;11.62;62.97
11643;BME280;5877;50.930;6.918;2023-03-31T17:15:43;98530.22;;;10.72;62.56
11643;BME280;5877;50.930;6.918;2023-03-31T17:20:35;98790.63;;;12.37;61.38
11643;BME280;5877;50.930;6.918;2023-03-31T17:25:27;98866.25;;;12.91;60.94
11643;BME280;5877;50.930;6.918;2023-03-31T17:30:19;98846.56;;;12.73;61.05
11643;BME280;5877;50.930;6.918;2023-03-31T17:35:11;98549.63;;;10.66;60.56
11643;BME280;5877;50.930;6.918;2023-03-31T17:40:11;98591.88;;;10.95;60.37
11643;BME280;5877;50.930;6.918;2023-03-31T17:45:03;98810.13;;;12.21;60.21
11643;BME280;5877;50.930;6.918;2023-03-31T17:49:55;98813.03;;;12.19;59.92
11643;BME280;5877;50.930;6.918;2023-03-31T17:54:47;98673.53;;;11.29;59.82
11643;BME280;5877;50.930;6.918;2023-03-31T17:59:41;98842.69;;;12.40;59.78
11643;BME280;5877;50.930;6.918;2023-03-31T18:04:33;98722.38;;;11.41;60.34
11643;BME280;5877;50.930;6.918;2023-03-31T18:09:24;98599.75;;;10.65;59.77
11643;BME280;5877;50.930;6.918;2023-03-31T18:14:17;98692.69;;;11.20;61.01
11643;BME280;5877;50.930;6.918;2023-03-31T18:19:09;98676.94;;;10.94;61.06
11643;BME280;5877;50.930;6.918;2023-03-31T18:24:01;98464.00;;;9.54;60.91
11643;BME280;5877;50.930;6.918;2023-03-31T18:28:53;98674.03;;;10.86;61.97
11643;BME280;5877;50.930;6.918;2023-03-31T18:33:45;98577.03;;;9.93;63.70
11643;BME280;5877;50.930;6.918;2023-03-31T18:38:37;98695.50;;;10.62;65.37
11643;BME280;5877;50.930;6.918;2023-03-31T18:43:29;98532.47;;;9.25;68.96
11643;BME280;5877;50.930;6.918;2023-03-31T18:48:23;98667.69;;;9.89;69.87
11643;BME280;5877;50.930;6.918;2023-03-31T18:53:15;98687.34;;;9.91;70.16
11643;BME280;5877;50.930;6.918;2023-03-31T18:58:09;98848.34;;;11.00;69.44
11643;BME280;5877;50.930;6.918;2023-03-31T19:03:01;98518.69;;;8.98;67.43
11643;BME280;5877;50.930;6.918;2023-03-31T19:07:53;98931.53;;;11.67;67.57
11643;BME280;5877;50.930;6.918;2023-03-31T19:12:46;98933.34;;;11.56;68.45
11643;BME280;5877;50.930;6.918;2023-03-31T19:17:39;98703.16;;;10.06;67.97
11643;BME280;5877;50.930;6.918;2023-03-31T19:22:31;98661.00;;;9.66;68.74
11643;BME280;5877;50.930;6.918;2023-03-31T19:27:23;98494.78;;;8.47;69.71
11643;BME280;5877;50.930;6.918;2023-03-31T19:32:15;98867.44;;;10.80;70.16
11643;BME280;5877;50.930;6.918;2023-03-31T19:37:08;98796.06;;;10.21;68.92
11643;BME280;5877;50.930;6.918;2023-03-31T19:42:00;98907.41;;;10.97;70.27
11643;BME280;5877;50.930;6.918;2023-03-31T19:46:53;98643.44;;;9.24;70.35
11643;BME280;5877;50.930;6.918;2023-03-31T19:51:45;98711.03;;;9.64;70.31
11643;BME280;5877;50.930;6.918;2023-03-31T19:56:37;98682.22;;;9.64;69.70
11643;BME280;5877;50.930;6.918;2023-03-31T20:01:29;98715.06;;;9.82;67.76
11643;BME280;5877;50.930;6.918;2023-03-31T20:06:24;98861.13;;;10.81;67.98
11643;BME280;5877;50.930;6.918;2023-03-31T20:11:17;98780.88;;;10.23;67.41
11643;BME280;5877;50.930;6.918;2023-03-31T20:16:14;98610.47;;;9.23;67.42
11643;BME280;5877;50.930;6.918;2023-03-31T20:21:10;98901.44;;;11.12;66.89
11643;BME280;5877;50.930;6.918;2023-03-31T20:26:04;98797.50;;;10.54;66.90
11643;BME280;5877;50.930;6.918;2023-03-31T20:30:57;98756.13;;;10.14;66.67
11643;BME280;5877;50.930;6.918;2023-03-31T20:36:08;98693.06;;;9.83;67.30
11643;BME280;5877;50.930;6.918;2023-03-31T20:41:00;98501.66;;;8.53;66.57
11643;BME280;5877;50.930;6.918;2023-03-31T20:45:56;98591.84;;;9.20;67.28
11643;BME280;5877;50.930;6.918;2023-03-31T20:50:53;98484.31;;;8.42;66.67
11643;BME280;5877;50.930;6.918;2023-03-31T20:55:45;98573.84;;;8.91;66.51
11643;BME280;5877;50.930;6.918;2023-03-31T21:00:37;98508.44;;;8.54;66.64
11643;BME280;5877;50.930;6.918;2023-03-31T21:05:29;98696.63;;;9.67;66.83
11643;BME280;5877;50.930;6.918;2023-03-31T21:10:21;98484.19;;;8.32;66.55
11643;BME280;5877;50.930;6.918;2023-03-31T21:15:15;98686.13;;;9.62;66.68
11643;BME280;5877;50.930;6.918;2023-03-31T21:20:07;98698.81;;;9.80;66.19
11643;BME280;5877;50.930;6.918;2023-03-31T21:24:59;98693.00;;;9.73;66.24
11643;BME280;5877;50.930;6.918;2023-03-31T21:29:51;98825.41;;;10.75;65.86
11643;BME280;5877;50.930;6.918;2023-03-31T21:34:43;98617.53;;;9.23;66.29
11643;BME280;5877;50.930;6.918;2023-03-31T21:39:35;98682.72;;;9.61;65.47
11643;BME280;5877;50.930;6.918;2023-03-31T21:44:27;98631.66;;;9.22;65.31
11643;BME280;5877;50.930;6.918;2023-03-31T21:49:19;98813.78;;;10.56;65.71
11643;BME280;5877;50.930;6.918;2023-03-31T21:54:11;98642.00;;;9.43;65.34
11643;BME280;5877;50.930;6.918;2023-03-31T21:59:03;98840.91;;;10.77;64.86
11643;BME280;5877;50.930;6.918;2023-03-31T22:03:55;98729.31;;;9.96;65.32
11643;BME280;5877;50.930;6.918;2023-03-31T22:08:47;98921.69;;;11.22;65.28
11643;BME280;5877;50.930;6.918;2023-03-31T22:13:39;98701.97;;;9.82;65.35
11643;BME280;5877;50.930;6.918;2023-03-31T22:18:31;98665.81;;;9.42;66.13
11643;BME280;5877;50.930;6.918;2023-03-31T22:23:23;98916.66;;;11.10;68.48
11643;BME280;5877;50.930;6.918;2023-03-31T22:28:16;98640.78;;;9.19;68.79
11643;BME280;5877;50.930;6.918;2023-03-31T22:33:08;98792.84;;;10.14;69.01
11643;BME280;5877;50.930;6.918;2023-03-31T22:37:59;98640.22;;;9.12;68.17
11643;BME280;5877;50.930;6.918;2023-03-31T22:42:51;98934.69;;;10.96;68.38
11643;BME280;5877;50.930;6.918;2023-03-31T22:47:45;98756.53;;;9.90;68.38
11643;BME280;5877;50.930;6.918;2023-03-31T22:52:37;98608.44;;;8.98;68.74
11643;BME280;5877;50.930;6.918;2023-03-31T22:57:29;98902.34;;;10.81;69.02
11643;BME280;5877;50.930;6.918;2023-03-31T23:02:21;98729.03;;;9.56;69.71
11643;BME280;5877;50.930;6.918;2023-03-31T23:07:13;98489.53;;;7.88;69.55
11643;BME280;5877;50.930;6.918;2023-03-31T23:12:06;98603.63;;;8.85;69.82
11643;BME280;5877;50.930;6.918;2023-03-31T23:16:58;98802.78;;;10.12;69.50
11643;BME280;5877;50.930;6.918;2023-03-31T23:21:50;98906.19;;;10.68;70.31
11643;BME280;5877;50.930;6.918;2023-03-31T23:26:42;98891.19;;;10.58;69.46
11643;BME280;5877;50.930;6.918;2023-03-31T23:31:34;98630.00;;;8.78;69.42
11643;BME280;5877;50.930;6.918;2023-03-31T23:36:27;98409.97;;;7.42;69.29
11643;BME280;5877;50.930;6.918;2023-03-31T23:41:20;98839.88;;;10.25;69.50
11643;BME280;5877;50.930;6.918;2023-03-31T23:46:13;98602.50;;;8.76;69.36
11643;BME280;5877;50.930;6.918;2023-03-31T23:51:06;98897.31;;;10.74;69.21
11643;BME280;5877;50.930;6.918;2023-03-31T23:56:06;98894.97;;;10.78;68.96
